createdAt,value
2019-06-10T00:00:21.840Z,100531.06
2019-06-10T00:00:59.984Z,100533.98
2019-06-10T00:01:36.588Z,100534.78
2019-06-10T00:02:13.059Z,100539.89
2019-06-10T00:02:50.809Z,100544.98
2019-06-10T00:03:27.387Z,100536.90
2019-06-10T00:04:07.987Z,100534.20
2019-06-10T00:04:42.468Z,100533.11
2019-06-10T00:05:21.469Z,100535.81
2019-06-10T00:05:57.663Z,100527.72
2019-06-10T00:06:34.399Z,100540.11
2019-06-10T00:07:11.803Z,100534.16
2019-06-10T00:08:08.274Z,100534.16
2019-06-10T00:08:47.185Z,100535.77
2019-06-10T00:09:23.029Z,100535.77
2019-06-10T00:10:02.260Z,100531.98
2019-06-10T00:10:37.288Z,100541.67
2019-06-10T00:11:13.771Z,100534.16
2019-06-10T00:11:51.512Z,100534.16
2019-06-10T00:12:27.487Z,100539.20
2019-06-10T00:13:04.070Z,100543.78
2019-06-10T00:13:41.563Z,100548.59
2019-06-10T00:14:17.883Z,100548.59
2019-06-10T00:14:53.810Z,100548.30
2019-06-10T00:15:31.394Z,100551.58
2019-06-10T00:16:07.989Z,100551.58
2019-06-10T00:16:44.924Z,100556.61
2019-06-10T00:17:21.350Z,100556.61
2019-06-10T00:18:18.969Z,100554.42
2019-06-10T00:18:41.778Z,100558.73
2019-06-10T00:19:12.945Z,100558.69
2019-06-10T00:19:51.035Z,100558.69
2019-06-10T00:20:26.895Z,100557.88
2019-06-10T00:21:04.961Z,100559.99
2019-06-10T00:21:41.389Z,100555.41
2019-06-10T00:22:17.391Z,100546.30
2019-06-10T00:22:53.239Z,100554.53
2019-06-10T00:23:31.627Z,100550.52
2019-06-10T00:24:08.504Z,100562.78
2019-06-10T00:24:45.065Z,100562.78
2019-06-10T00:25:21.751Z,100564.39
2019-06-10T00:25:57.950Z,100565.44
2019-06-10T00:26:33.838Z,100569.74
2019-06-10T00:27:11.975Z,100574.05
2019-06-10T00:27:48.145Z,100574.05
2019-06-10T00:28:23.987Z,100571.85
2019-06-10T00:29:00.710Z,100568.06
2019-06-10T00:29:40.739Z,100572.28
2019-06-10T00:30:16.281Z,100572.28
2019-06-10T00:30:52.159Z,100580.38
2019-06-10T00:31:28.010Z,100574.39
2019-06-10T00:32:07.005Z,100569.00
2019-06-10T00:32:43.067Z,100568.48
2019-06-10T00:33:21.444Z,100577.52
2019-06-10T00:33:56.660Z,100579.66
2019-06-10T00:34:34.993Z,100574.77
2019-06-10T00:35:12.374Z,100566.16
2019-06-10T00:35:48.032Z,100566.16
2019-06-10T00:36:23.920Z,100579.49
2019-06-10T00:37:02.670Z,100579.49
2019-06-10T00:37:37.474Z,100577.80
2019-06-10T00:38:14.540Z,100585.61
2019-06-10T00:38:51.773Z,100581.52
2019-06-10T00:39:27.944Z,100583.66
2019-06-10T00:40:06.891Z,100583.66
2019-06-10T00:40:42.116Z,100577.10
2019-06-10T00:41:18.035Z,100579.30
2019-06-10T00:41:54.304Z,100570.90
2019-06-10T00:42:31.454Z,100577.31
2019-06-10T00:43:09.128Z,100577.31
2019-06-10T00:43:45.808Z,100576.21
2019-06-10T00:44:23.466Z,100587.42
2019-06-10T00:45:02.660Z,100577.72
2019-06-10T00:45:37.695Z,100577.36
2019-06-10T00:46:15.108Z,100577.36
2019-06-10T00:46:52.018Z,100582.17
2019-06-10T00:47:30.792Z,100583.77
2019-06-10T00:48:15.789Z,100583.77
2019-06-10T00:48:45.715Z,100588.08
2019-06-10T00:49:22.090Z,100574.96
2019-06-10T00:49:58.539Z,100577.78
2019-06-10T00:50:35.080Z,100580.98
2019-06-10T00:51:13.090Z,100580.98
2019-06-10T00:51:50.994Z,100587.98
2019-06-10T00:52:27.553Z,100581.58
2019-06-10T00:53:05.855Z,100581.58
2019-06-10T00:53:42.784Z,100587.39
2019-06-10T00:54:21.749Z,100587.39
2019-06-10T00:54:57.560Z,100581.98
2019-06-10T00:55:34.114Z,100582.48
2019-06-10T00:56:13.838Z,100582.58
2019-06-10T00:56:52.110Z,100582.58
2019-06-10T00:57:28.698Z,100590.00
2019-06-10T00:58:05.795Z,100590.00
2019-06-10T00:58:42.270Z,100572.58
2019-06-10T00:59:18.887Z,100583.23
2019-06-10T00:59:55.537Z,100588.63
2019-06-10T01:00:32.181Z,100589.13
2019-06-10T01:01:11.458Z,100590.44
2019-06-10T01:01:47.143Z,100590.44
2019-06-10T01:02:24.169Z,100592.03
2019-06-10T01:03:02.338Z,100589.03
2019-06-10T01:03:41.335Z,100582.63
2019-06-10T01:04:17.084Z,100589.84
2019-06-10T01:04:53.762Z,100589.84
2019-06-10T01:05:31.273Z,100592.23
2019-06-10T01:06:08.546Z,100593.84
2019-06-10T01:06:45.279Z,100590.34
2019-06-10T01:07:21.989Z,100594.05
2019-06-10T01:08:01.211Z,100590.03
2019-06-10T01:08:37.277Z,100590.03
2019-06-10T01:09:14.867Z,100601.58
2019-06-10T01:09:51.791Z,100597.78
2019-06-10T01:10:28.380Z,100602.08
2019-06-10T01:11:10.471Z,100584.84
2019-06-10T01:11:43.878Z,100598.78
2019-06-10T01:12:21.115Z,100587.47
2019-06-10T01:12:57.799Z,100596.61
2019-06-10T01:13:34.461Z,100592.80
2019-06-10T01:14:13.628Z,100598.21
2019-06-10T01:14:51.633Z,100590.41
2019-06-10T01:15:31.019Z,100598.71
2019-06-10T01:16:07.730Z,100597.91
2019-06-10T01:16:44.093Z,100604.12
2019-06-10T01:17:21.313Z,100598.71
2019-06-10T01:17:58.414Z,100603.81
2019-06-10T01:18:38.483Z,100607.92
2019-06-10T01:19:15.657Z,100607.92
2019-06-10T01:19:51.390Z,100603.31
2019-06-10T01:20:28.120Z,100602.52
2019-06-10T01:21:05.763Z,100609.52
2019-06-10T01:21:42.372Z,100602.52
2019-06-10T01:22:21.111Z,100614.62
2019-06-10T01:22:57.218Z,100612.73
2019-06-10T01:23:34.010Z,100608.12
2019-06-10T01:24:12.053Z,100613.33
2019-06-10T01:24:51.042Z,100617.53
2019-06-10T01:25:27.795Z,100612.92
2019-06-10T01:26:05.715Z,100612.92
2019-06-10T01:26:42.614Z,100616.13
2019-06-10T01:27:21.063Z,100618.83
2019-06-10T01:27:57.494Z,100609.42
2019-06-10T01:28:34.027Z,100609.42
2019-06-10T01:29:12.739Z,100615.03
2019-06-10T01:29:50.939Z,100614.73
2019-06-10T01:30:27.428Z,100620.94
2019-06-10T01:31:03.962Z,100621.73
2019-06-10T01:31:41.947Z,100618.73
2019-06-10T01:32:18.009Z,100624.64
2019-06-10T01:32:54.437Z,100618.13
2019-06-10T01:33:31.881Z,100627.84
2019-06-10T01:34:10.028Z,100627.58
2019-06-10T01:34:46.771Z,100623.77
2019-06-10T01:35:22.797Z,100625.37
2019-06-10T01:36:00.769Z,100622.36
2019-06-10T01:36:37.268Z,100632.38
2019-06-10T01:37:14.780Z,100630.17
2019-06-10T01:37:52.229Z,100628.58
2019-06-10T01:38:28.650Z,100631.77
2019-06-10T01:39:07.117Z,100632.58
2019-06-10T01:39:43.646Z,100629.57
2019-06-10T01:40:20.905Z,100634.98
2019-06-10T01:40:58.010Z,100625.77
2019-06-10T01:41:34.442Z,100630.07
2019-06-10T01:42:12.820Z,100634.38
2019-06-10T01:42:50.607Z,100634.38
2019-06-10T01:43:32.056Z,100621.45
2019-06-10T01:44:11.149Z,100621.45
2019-06-10T01:44:47.304Z,100628.66
2019-06-10T01:45:23.998Z,100626.77
2019-06-10T01:46:01.609Z,100629.97
2019-06-10T01:46:38.362Z,100628.86
2019-06-10T01:47:16.164Z,100633.17
2019-06-10T01:47:52.519Z,100622.35
2019-06-10T01:48:40.439Z,100618.55
2019-06-10T01:49:07.114Z,100623.16
2019-06-10T01:49:43.799Z,100618.05
2019-06-10T01:50:21.834Z,100620.64
2019-06-10T01:50:58.429Z,100626.05
2019-06-10T01:51:34.324Z,100616.84
2019-06-10T01:52:12.421Z,100618.73
2019-06-10T01:52:48.605Z,100617.37
2019-06-10T01:53:25.006Z,100620.07
2019-06-10T01:54:01.654Z,100623.27
2019-06-10T01:54:41.890Z,100615.16
2019-06-10T01:55:18.241Z,100616.76
2019-06-10T01:55:54.935Z,100618.39
2019-06-10T01:56:31.800Z,100613.78
2019-06-10T01:57:07.765Z,100610.77
2019-06-10T01:57:43.737Z,100616.68
2019-06-10T01:58:23.327Z,100613.17
2019-06-10T01:58:58.002Z,100607.46
2019-06-10T01:59:34.757Z,100606.36
2019-06-10T02:00:15.543Z,100612.27
2019-06-10T02:01:11.669Z,100609.56
2019-06-10T02:01:57.250Z,100610.05
2019-06-10T02:02:35.232Z,100609.75
2019-06-10T02:03:16.225Z,100612.16
2019-06-10T02:03:51.732Z,100609.14
2019-06-10T02:04:27.874Z,100610.25
2019-06-10T02:05:05.249Z,100613.17
2019-06-10T02:05:41.912Z,100610.97
2019-06-10T02:06:24.391Z,100607.65
2019-06-10T02:07:01.298Z,100612.95
2019-06-10T02:07:37.328Z,100611.34
2019-06-10T02:08:14.577Z,100611.23
2019-06-10T02:08:54.596Z,100610.13
2019-06-10T02:09:30.999Z,100608.72
2019-06-10T02:10:09.468Z,100606.20
2019-06-10T02:10:46.298Z,100609.13
2019-06-10T02:11:24.383Z,100609.31
2019-06-10T02:12:02.238Z,100608.70
2019-06-10T02:12:38.371Z,100614.30
2019-06-10T02:13:32.432Z,100602.05
2019-06-10T02:14:14.330Z,100604.67
2019-06-10T02:14:47.529Z,100607.28
2019-06-10T02:15:24.023Z,100602.85
2019-06-10T02:16:01.006Z,100602.23
2019-06-10T02:16:37.205Z,100595.09
2019-06-10T02:17:16.387Z,100603.71
2019-06-10T02:17:53.455Z,100602.78
2019-06-10T02:18:32.223Z,100608.10
2019-06-10T02:19:08.299Z,100600.16
2019-06-10T02:19:44.254Z,100609.27
2019-06-10T02:20:23.843Z,100599.09
2019-06-10T02:21:00.947Z,100604.69
2019-06-10T02:21:37.446Z,100596.46
2019-06-10T02:22:16.987Z,100600.67
2019-06-10T02:22:52.543Z,100597.82
2019-06-10T02:23:31.392Z,100601.50
2019-06-10T02:24:07.575Z,100595.15
2019-06-10T02:24:44.059Z,100596.16
2019-06-10T02:25:21.690Z,100597.92
2019-06-10T02:26:01.624Z,100599.69
2019-06-10T02:26:37.110Z,100599.23
2019-06-10T02:27:14.831Z,100605.03
2019-06-10T02:27:51.863Z,100595.64
2019-06-10T02:28:28.607Z,100593.30
2019-06-10T02:29:05.129Z,100596.37
2019-06-10T02:29:42.315Z,100593.36
2019-06-10T02:30:28.469Z,100591.45
2019-06-10T02:30:57.004Z,100591.89
2019-06-10T02:31:37.363Z,100589.01
2019-06-10T02:32:15.847Z,100595.41
2019-06-10T02:32:52.368Z,100584.72
2019-06-10T02:33:36.205Z,100582.95
2019-06-10T02:34:12.430Z,100583.89
2019-06-10T02:35:02.167Z,100587.70
2019-06-10T02:35:40.069Z,100582.92
2019-06-10T02:36:05.322Z,100590.27
2019-06-10T02:36:44.550Z,100583.52
2019-06-10T02:37:23.995Z,100579.45
2019-06-10T02:37:58.262Z,100585.99
2019-06-10T02:38:39.418Z,100588.85
2019-06-10T02:39:19.662Z,100582.75
2019-06-10T02:39:54.235Z,100586.91
2019-06-10T02:40:33.110Z,100582.05
2019-06-10T02:41:08.106Z,100579.13
2019-06-10T02:41:44.796Z,100578.89
2019-06-10T02:42:34.811Z,100575.56
2019-06-10T02:43:09.434Z,100581.25
2019-06-10T02:43:45.314Z,100581.45
2019-06-10T02:44:31.929Z,100590.30
2019-06-10T02:45:03.251Z,100587.28
2019-06-10T02:45:38.477Z,100592.48
2019-06-10T02:46:19.548Z,100588.63
2019-06-10T02:46:54.580Z,100596.59
2019-06-10T02:47:33.485Z,100595.12
2019-06-10T02:48:08.922Z,100602.16
2019-06-10T02:48:45.649Z,100591.72
2019-06-10T02:49:42.687Z,100595.39
2019-06-10T02:50:06.992Z,100601.42
2019-06-10T02:51:04.111Z,100599.27
2019-06-10T02:51:43.621Z,100591.20
2019-06-10T02:52:22.904Z,100591.14
2019-06-10T02:52:57.329Z,100591.59
2019-06-10T02:53:35.894Z,100597.98
2019-06-10T02:54:15.539Z,100593.45
2019-06-10T02:54:53.646Z,100590.27
2019-06-10T02:55:30.931Z,100591.40
2019-06-10T02:56:07.489Z,100591.17
2019-06-10T02:56:44.371Z,100589.58
2019-06-10T02:57:29.561Z,100593.91
2019-06-10T02:57:59.927Z,100593.19
2019-06-10T02:58:38.748Z,100592.46
2019-06-10T02:59:16.221Z,100586.31
2019-06-10T02:59:54.543Z,100597.10
2019-06-10T03:00:39.807Z,100589.45
2019-06-10T03:01:09.065Z,100595.12
2019-06-10T03:01:45.814Z,100589.21
2019-06-10T03:02:28.867Z,100594.71
2019-06-10T03:03:03.698Z,100598.36
2019-06-10T03:03:44.278Z,100598.58
2019-06-10T03:04:18.249Z,100596.71
2019-06-10T03:04:55.742Z,100594.20
2019-06-10T03:05:40.519Z,100594.88
2019-06-10T03:06:13.663Z,100588.97
2019-06-10T03:06:48.515Z,100593.74
2019-06-10T03:07:28.756Z,100596.25
2019-06-10T03:08:04.052Z,100595.39
2019-06-10T03:08:43.385Z,100594.95
2019-06-10T03:09:20.506Z,100594.28
2019-06-10T03:09:56.935Z,100591.78
2019-06-10T03:10:37.001Z,100590.19
2019-06-10T03:11:14.105Z,100589.05
2019-06-10T03:11:49.457Z,100595.19
2019-06-10T03:12:26.137Z,100590.30
2019-06-10T03:13:02.700Z,100588.59
2019-06-10T03:13:39.265Z,100593.13
2019-06-10T03:14:15.717Z,100590.73
2019-06-10T03:14:52.624Z,100586.31
2019-06-10T03:15:29.410Z,100584.50
2019-06-10T03:16:42.179Z,100584.28
2019-06-10T03:17:19.994Z,100587.73
2019-06-10T03:17:56.675Z,100579.35
2019-06-10T03:18:33.047Z,100576.40
2019-06-10T03:19:09.594Z,100573.44
2019-06-10T03:19:50.376Z,100575.97
2019-06-10T03:20:25.877Z,100573.70
2019-06-10T03:21:02.611Z,100567.53
2019-06-10T03:21:39.194Z,100575.74
2019-06-10T03:22:16.015Z,100574.61
2019-06-10T03:22:52.657Z,100574.14
2019-06-10T03:23:29.218Z,100567.34
2019-06-10T03:24:05.950Z,100573.70
2019-06-10T03:24:42.244Z,100568.49
2019-06-10T03:25:18.745Z,100570.30
2019-06-10T03:26:04.593Z,100568.15
2019-06-10T03:26:42.806Z,100566.31
2019-06-10T03:27:20.413Z,100565.63
2019-06-10T03:27:57.255Z,100571.09
2019-06-10T03:28:34.048Z,100555.95
2019-06-10T03:29:12.852Z,100563.80
2019-06-10T03:29:49.074Z,100561.61
2019-06-10T03:30:39.390Z,100558.44
2019-06-10T03:31:05.802Z,100561.40
2019-06-10T03:31:47.299Z,100560.02
2019-06-10T03:32:23.190Z,100561.60
2019-06-10T03:32:58.217Z,100557.51
2019-06-10T03:33:42.094Z,100559.99
2019-06-10T03:34:18.147Z,100559.33
2019-06-10T03:34:55.133Z,100558.03
2019-06-10T03:35:33.038Z,100559.27
2019-06-10T03:36:12.019Z,100566.19
2019-06-10T03:36:47.906Z,100560.13
2019-06-10T03:37:25.999Z,100560.03
2019-06-10T03:38:03.021Z,100556.95
2019-06-10T03:38:39.127Z,100562.66
2019-06-10T03:39:16.162Z,100556.53
2019-06-10T03:39:53.150Z,100567.02
2019-06-10T03:40:30.185Z,100557.68
2019-06-10T03:41:07.744Z,100557.23
2019-06-10T03:41:43.796Z,100559.52
2019-06-10T03:42:23.717Z,100564.28
2019-06-10T03:43:02.561Z,100561.75
2019-06-10T03:43:39.469Z,100567.44
2019-06-10T03:44:15.363Z,100563.81
2019-06-10T03:44:52.559Z,100562.41
2019-06-10T03:45:28.727Z,100567.17
2019-06-10T03:46:04.643Z,100561.01
2019-06-10T03:46:43.368Z,100565.36
2019-06-10T03:47:21.850Z,100563.96
2019-06-10T03:47:58.628Z,100564.41
2019-06-10T03:48:34.716Z,100561.36
2019-06-10T03:49:12.618Z,100559.72
2019-06-10T03:49:52.547Z,100565.68
2019-06-10T03:50:27.482Z,100566.25
2019-06-10T03:51:05.636Z,100562.52
2019-06-10T03:51:42.861Z,100560.78
2019-06-10T03:52:19.369Z,100559.08
2019-06-10T03:53:00.941Z,100554.95
2019-06-10T03:53:36.044Z,100560.16
2019-06-10T03:54:14.094Z,100555.27
2019-06-10T03:54:52.131Z,100561.97
2019-06-10T03:55:29.162Z,100557.04
2019-06-10T03:56:05.352Z,100552.58
2019-06-10T03:56:42.975Z,100552.32
2019-06-10T03:57:19.261Z,100555.17
2019-06-10T03:57:56.736Z,100557.65
2019-06-10T03:58:32.963Z,100553.42
2019-06-10T03:59:08.940Z,100551.20
2019-06-10T03:59:45.015Z,100553.28
2019-06-10T04:00:27.203Z,100548.75
2019-06-10T04:01:03.730Z,100549.45
2019-06-10T04:01:42.295Z,100553.36
2019-06-10T04:02:17.405Z,100549.39
2019-06-10T04:02:53.314Z,100552.05
2019-06-10T04:03:29.398Z,100539.75
2019-06-10T04:04:08.920Z,100549.68
2019-06-10T04:04:44.839Z,100549.34
2019-06-10T04:05:23.910Z,100550.18
2019-06-10T04:05:58.370Z,100551.66
2019-06-10T04:06:34.285Z,100541.64
2019-06-10T04:07:14.234Z,100541.99
2019-06-10T04:07:52.675Z,100546.66
2019-06-10T04:08:28.688Z,100546.20
2019-06-10T04:09:05.222Z,100549.59
2019-06-10T04:09:42.507Z,100541.41
2019-06-10T04:10:23.980Z,100535.05
2019-06-10T04:11:02.635Z,100542.33
2019-06-10T04:11:38.281Z,100536.42
2019-06-10T04:12:17.479Z,100537.33
2019-06-10T04:12:53.406Z,100539.16
2019-06-10T04:13:29.313Z,100536.73
2019-06-10T04:14:05.182Z,100537.67
2019-06-10T04:14:42.328Z,100537.08
2019-06-10T04:15:18.163Z,100534.80
2019-06-10T04:15:56.954Z,100532.52
2019-06-10T04:16:32.940Z,100528.75
2019-06-10T04:17:08.857Z,100533.64
2019-06-10T04:17:44.801Z,100534.54
2019-06-10T04:18:24.175Z,100538.84
2019-06-10T04:18:58.329Z,100529.02
2019-06-10T04:19:34.217Z,100528.42
2019-06-10T04:20:13.142Z,100532.04
2019-06-10T04:20:48.105Z,100530.89
2019-06-10T04:21:28.354Z,100526.22
2019-06-10T04:22:04.333Z,100531.69
2019-06-10T04:22:40.193Z,100537.72
2019-06-10T04:23:16.084Z,100526.62
2019-06-10T04:23:52.877Z,100529.00
2019-06-10T04:24:28.990Z,100530.92
2019-06-10T04:25:04.900Z,100530.40
2019-06-10T04:25:44.321Z,100523.08
2019-06-10T04:26:24.107Z,100526.60
2019-06-10T04:27:02.802Z,100531.48
2019-06-10T04:27:42.263Z,100532.72
2019-06-10T04:28:17.852Z,100527.59
2019-06-10T04:28:55.439Z,100534.12
2019-06-10T04:29:32.938Z,100531.14
2019-06-10T04:30:12.283Z,100532.93
2019-06-10T04:30:47.729Z,100532.22
2019-06-10T04:31:25.179Z,100534.68
2019-06-10T04:32:03.045Z,100534.84
2019-06-10T04:32:39.267Z,100524.80
2019-06-10T04:33:15.159Z,100526.55
2019-06-10T04:33:53.108Z,100526.62
2019-06-10T04:34:33.369Z,100522.94
2019-06-10T04:35:09.559Z,100525.67
2019-06-10T04:35:46.750Z,100525.13
2019-06-10T04:36:24.507Z,100522.94
2019-06-10T04:37:03.247Z,100521.63
2019-06-10T04:37:39.328Z,100515.61
2019-06-10T04:38:16.691Z,100516.23
2019-06-10T04:38:52.699Z,100512.95
2019-06-10T04:39:29.262Z,100509.41
2019-06-10T04:40:15.762Z,100506.05
2019-06-10T04:40:52.617Z,100508.14
2019-06-10T04:41:29.199Z,100510.12
2019-06-10T04:42:05.162Z,100507.00
2019-06-10T04:42:43.625Z,100500.11
2019-06-10T04:43:20.423Z,100505.83
2019-06-10T04:43:58.220Z,100506.97
2019-06-10T04:44:34.111Z,100503.82
2019-06-10T04:45:12.210Z,100494.98
2019-06-10T04:45:49.774Z,100504.56
2019-06-10T04:46:29.551Z,100510.92
2019-06-10T04:47:05.748Z,100496.58
2019-06-10T04:47:43.223Z,100499.75
2019-06-10T04:48:20.569Z,100504.42
2019-06-10T04:48:57.140Z,100504.78
2019-06-10T04:49:33.187Z,100498.22
2019-06-10T04:50:24.028Z,100498.08
2019-06-10T04:50:47.210Z,100495.48
2019-06-10T04:51:24.880Z,100486.81
2019-06-10T04:52:03.102Z,100496.12
2019-06-10T04:52:42.906Z,100498.06
2019-06-10T04:53:18.686Z,100481.78
2019-06-10T04:53:54.692Z,100483.56
2019-06-10T04:54:33.074Z,100491.54
2019-06-10T04:55:08.406Z,100487.88
2019-06-10T04:55:45.275Z,100485.95
2019-06-10T04:56:24.579Z,100500.17
2019-06-10T04:57:02.234Z,100490.05
2019-06-10T04:57:38.319Z,100490.94
2019-06-10T04:58:14.199Z,100498.11
2019-06-10T04:58:52.341Z,100487.86
2019-06-10T04:59:33.622Z,100496.30
2019-06-10T05:00:13.867Z,100488.03
2019-06-10T05:00:47.968Z,100489.42
2019-06-10T05:01:27.007Z,100490.23
2019-06-10T05:02:05.727Z,100484.08
2019-06-10T05:02:43.124Z,100481.78
2019-06-10T05:03:19.331Z,100492.33
2019-06-10T05:03:55.325Z,100488.66
2019-06-10T05:04:33.005Z,100482.52
2019-06-10T05:05:09.165Z,100487.85
2019-06-10T05:05:48.090Z,100490.07
2019-06-10T05:06:25.767Z,100484.26
2019-06-10T05:07:02.986Z,100481.43
2019-06-10T05:07:39.748Z,100479.33
2019-06-10T05:08:15.739Z,100481.00
2019-06-10T05:08:53.786Z,100470.28
2019-06-10T05:09:36.246Z,100471.28
2019-06-10T05:10:12.589Z,100474.55
2019-06-10T05:10:49.321Z,100471.95
2019-06-10T05:11:26.945Z,100477.78
2019-06-10T05:12:03.072Z,100474.25
2019-06-10T05:12:43.094Z,100467.41
2019-06-10T05:13:19.303Z,100475.78
2019-06-10T05:13:55.362Z,100471.66
2019-06-10T05:14:33.397Z,100464.06
2019-06-10T05:15:09.754Z,100465.38
2019-06-10T05:15:45.771Z,100474.13
2019-06-10T05:16:27.020Z,100469.19
2019-06-10T05:17:02.233Z,100461.85
2019-06-10T05:17:39.014Z,100465.93
2019-06-10T05:18:15.734Z,100463.63
2019-06-10T05:18:54.601Z,100469.10
2019-06-10T05:19:33.521Z,100472.30
2019-06-10T05:20:09.239Z,100468.77
2019-06-10T05:20:54.850Z,100465.49
2019-06-10T05:21:26.155Z,100463.91
2019-06-10T05:22:03.137Z,100463.72
2019-06-10T05:22:39.015Z,100463.98
2019-06-10T05:23:14.983Z,100463.80
2019-06-10T05:23:52.232Z,100458.33
2019-06-10T05:24:30.131Z,100460.89
2019-06-10T05:25:09.115Z,100459.22
2019-06-10T05:25:47.114Z,100468.92
2019-06-10T05:26:26.932Z,100464.84
2019-06-10T05:27:03.069Z,100461.50
2019-06-10T05:27:38.970Z,100466.31
2019-06-10T05:28:15.410Z,100460.41
2019-06-10T05:28:52.416Z,100477.95
2019-06-10T05:29:31.219Z,100463.38
2019-06-10T05:30:09.026Z,100476.85
2019-06-10T05:30:44.989Z,100470.50
2019-06-10T05:31:25.209Z,100468.73
2019-06-10T05:32:02.398Z,100468.61
2019-06-10T05:32:37.721Z,100464.64
2019-06-10T05:33:13.609Z,100466.00
2019-06-10T05:33:49.510Z,100473.75
2019-06-10T05:34:27.219Z,100467.41
2019-06-10T05:35:04.809Z,100469.69
2019-06-10T05:35:42.756Z,100471.05
2019-06-10T05:36:20.567Z,100468.23
2019-06-10T05:36:59.767Z,100465.40
2019-06-10T05:37:36.586Z,100464.75
2019-06-10T05:38:16.049Z,100467.05
2019-06-10T05:38:52.620Z,100468.86
2019-06-10T05:39:30.394Z,100476.14
2019-06-10T05:40:07.653Z,100467.03
2019-06-10T05:40:43.523Z,100471.59
2019-06-10T05:41:24.099Z,100464.44
2019-06-10T05:41:59.733Z,100464.78
2019-06-10T05:42:36.287Z,100461.95
2019-06-10T05:43:13.077Z,100464.58
2019-06-10T05:43:49.188Z,100459.02
2019-06-10T05:44:25.760Z,100466.95
2019-06-10T05:45:03.813Z,100456.97
2019-06-10T05:45:42.308Z,100465.01
2019-06-10T05:46:17.800Z,100462.97
2019-06-10T05:46:53.649Z,100458.17
2019-06-10T05:47:31.532Z,100458.17
2019-06-10T05:48:08.008Z,100461.58
2019-06-10T05:48:46.340Z,100458.85
2019-06-10T05:49:24.157Z,100454.09
2019-06-10T05:50:03.888Z,100451.36
2019-06-10T05:50:39.727Z,100455.67
2019-06-10T05:51:15.696Z,100452.95
2019-06-10T05:51:52.831Z,100455.00
2019-06-10T05:52:29.080Z,100461.93
2019-06-10T05:53:07.025Z,100455.88
2019-06-10T05:53:45.719Z,100465.88
2019-06-10T05:54:23.350Z,100464.52
2019-06-10T05:54:59.051Z,100458.49
2019-06-10T05:55:35.382Z,100455.95
2019-06-10T05:56:12.947Z,100462.20
2019-06-10T05:56:52.186Z,100455.16
2019-06-10T05:57:29.465Z,100457.74
2019-06-10T05:58:06.007Z,100460.80
2019-06-10T05:58:43.569Z,100463.53
2019-06-10T05:59:23.017Z,100461.94
2019-06-10T05:59:58.773Z,100457.17
2019-06-10T06:00:35.514Z,100455.92
2019-06-10T06:01:13.201Z,100459.31
2019-06-10T06:01:49.519Z,100463.06
2019-06-10T06:02:25.789Z,100450.57
2019-06-10T06:03:02.768Z,100457.61
2019-06-10T06:03:40.187Z,100452.84
2019-06-10T06:04:16.149Z,100453.48
2019-06-10T06:04:53.060Z,100452.69
2019-06-10T06:05:30.212Z,100454.16
2019-06-10T06:06:07.384Z,100442.81
2019-06-10T06:06:45.061Z,100445.29
2019-06-10T06:07:22.271Z,100442.11
2019-06-10T06:08:04.362Z,100442.78
2019-06-10T06:08:37.477Z,100442.78
2019-06-10T06:09:14.324Z,100443.58
2019-06-10T06:09:50.306Z,100434.16
2019-06-10T06:10:27.238Z,100441.19
2019-06-10T06:11:03.482Z,100434.77
2019-06-10T06:11:39.468Z,100437.49
2019-06-10T06:12:15.403Z,100436.23
2019-06-10T06:12:52.658Z,100426.14
2019-06-10T06:13:29.501Z,100432.26
2019-06-10T06:14:05.605Z,100431.59
2019-06-10T06:14:42.605Z,100436.23
2019-06-10T06:15:22.086Z,100430.00
2019-06-10T06:15:58.095Z,100423.42
2019-06-10T06:16:36.127Z,100427.73
2019-06-10T06:17:12.723Z,100430.94
2019-06-10T06:18:03.984Z,100430.94
2019-06-10T06:18:30.070Z,100423.27
2019-06-10T06:19:07.561Z,100423.72
2019-06-10T06:19:43.480Z,100423.72
2019-06-10T06:20:19.976Z,100425.77
2019-06-10T06:20:55.966Z,100426.23
2019-06-10T06:21:39.709Z,100426.69
2019-06-10T06:22:12.595Z,100430.78
2019-06-10T06:22:48.786Z,100420.16
2019-06-10T06:23:26.904Z,100417.88
2019-06-10T06:24:04.259Z,100426.63
2019-06-10T06:24:42.621Z,100424.47
2019-06-10T06:25:17.870Z,100426.63
2019-06-10T06:25:54.686Z,100428.06
2019-06-10T06:26:36.532Z,100418.18
2019-06-10T06:27:09.427Z,100419.09
2019-06-10T06:27:45.299Z,100412.75
2019-06-10T06:28:22.944Z,100420.35
2019-06-10T06:28:58.997Z,100412.73
2019-06-10T06:29:36.726Z,100409.77
2019-06-10T06:30:18.461Z,100415.47
2019-06-10T06:30:52.808Z,100415.58
2019-06-10T06:31:30.194Z,100412.53
2019-06-10T06:32:06.875Z,100415.27
2019-06-10T06:32:44.022Z,100410.95
2019-06-10T06:33:22.016Z,100410.47
2019-06-10T06:33:57.720Z,100406.05
2019-06-10T06:34:35.909Z,100412.50
2019-06-10T06:35:12.616Z,100409.55
2019-06-10T06:35:48.735Z,100409.23
2019-06-10T06:36:24.593Z,100408.64
2019-06-10T06:37:02.206Z,100403.64
2019-06-10T06:37:39.678Z,100410.43
2019-06-10T06:38:16.441Z,100408.36
2019-06-10T06:38:53.178Z,100413.69
2019-06-10T06:39:29.344Z,100408.12
2019-06-10T06:40:05.751Z,100403.36
2019-06-10T06:40:43.463Z,100402.56
2019-06-10T06:41:22.420Z,100407.22
2019-06-10T06:41:59.051Z,100405.63
2019-06-10T06:42:37.081Z,100401.08
2019-06-10T06:43:14.254Z,100399.80
2019-06-10T06:43:53.114Z,100401.73
2019-06-10T06:44:29.640Z,100400.48
2019-06-10T06:45:06.628Z,100400.59
2019-06-10T06:45:42.851Z,100396.63
2019-06-10T06:46:18.816Z,100397.42
2019-06-10T06:46:54.909Z,100402.19
2019-06-10T06:47:34.014Z,100394.50
2019-06-10T06:48:09.180Z,100397.00
2019-06-10T06:48:45.231Z,100401.66
2019-06-10T06:49:23.112Z,100393.14
2019-06-10T06:50:02.758Z,100395.64
2019-06-10T06:50:59.094Z,100387.92
2019-06-10T06:51:33.607Z,100394.73
2019-06-10T06:51:59.335Z,100388.14
2019-06-10T06:53:09.250Z,100390.70
2019-06-10T06:53:28.842Z,100384.68
2019-06-10T06:53:57.473Z,100380.48
2019-06-10T06:54:38.122Z,100379.56
2019-06-10T06:55:17.021Z,100384.57
2019-06-10T06:55:55.865Z,100382.50
2019-06-10T06:56:36.139Z,100374.11
2019-06-10T06:57:13.118Z,100375.94
2019-06-10T06:57:52.952Z,100362.27
2019-06-10T06:58:29.136Z,100372.27
2019-06-10T06:59:05.854Z,100372.12
2019-06-10T06:59:43.254Z,100368.34
2019-06-10T07:00:38.171Z,100368.58
2019-06-10T07:01:07.388Z,100367.21
2019-06-10T07:01:38.062Z,100362.64
2019-06-10T07:02:22.746Z,100371.72
2019-06-10T07:03:05.988Z,100359.44
2019-06-10T07:03:45.093Z,100356.19
2019-06-10T07:04:23.415Z,100353.41
2019-06-10T07:05:03.039Z,100360.63
2019-06-10T07:05:43.377Z,100349.70
2019-06-10T07:06:19.581Z,100351.41
2019-06-10T07:06:56.299Z,100353.80
2019-06-10T07:07:38.573Z,100356.08
2019-06-10T07:08:17.827Z,100354.00
2019-06-10T07:09:04.168Z,100350.12